createdAt,value
2023-03-30T00:01:12.132Z,65.00
2023-03-30T00:03:40.774Z,64.80
2023-03-30T00:06:10.592Z,64.80
2023-03-30T00:08:39.398Z,64.80
2023-03-30T00:11:09.357Z,64.80
2023-03-30T00:13:39.711Z,64.90
2023-03-30T00:16:09.531Z,64.80
2023-03-30T00:18:39.430Z,64.80
2023-03-30T00:21:09.532Z,64.80
2023-03-30T00:23:37.926Z,64.80
2023-03-30T00:26:07.391Z,64.80
2023-03-30T00:28:35.616Z,64.80
2023-03-30T00:31:05.559Z,64.70
2023-03-30T00:33:43.852Z,64.80
2023-03-30T00:36:13.871Z,64.70
2023-03-30T00:38:42.235Z,64.60
2023-03-30T00:41:10.495Z,64.60
2023-03-30T00:43:57.136Z,64.50
2023-03-30T00:46:26.880Z,64.60
2023-03-30T00:48:58.240Z,64.40
2023-03-30T00:51:27.887Z,64.50
2023-03-30T00:54:01.104Z,64.40
2023-03-30T00:56:31.735Z,64.40
2023-03-30T00:59:02.570Z,64.40
2023-03-30T01:01:34.553Z,64.40
2023-03-30T01:04:03.727Z,64.30
2023-03-30T01:06:32.809Z,64.30
2023-03-30T01:09:01.071Z,64.00
2023-03-30T01:11:29.519Z,63.90
2023-03-30T01:14:02.030Z,63.90
2023-03-30T01:16:40.152Z,64.00
2023-03-30T01:19:37.754Z,63.90
2023-03-30T01:22:25.173Z,63.90
2023-03-30T01:25:28.656Z,64.00
2023-03-30T01:28:22.212Z,63.80
2023-03-30T01:31:14.582Z,63.90
2023-03-30T01:34:00.173Z,63.80
2023-03-30T01:36:50.337Z,63.80
2023-03-30T01:39:41.830Z,63.90
2023-03-30T01:42:20.183Z,63.90
2023-03-30T01:44:54.683Z,63.90
2023-03-30T01:47:29.036Z,63.90
2023-03-30T01:50:02.832Z,63.80
2023-03-30T01:52:38.539Z,63.80
2023-03-30T01:55:14.830Z,63.80
2023-03-30T01:57:47.005Z,63.80
2023-03-30T02:00:19.066Z,63.80
2023-03-30T02:02:52.807Z,63.80
2023-03-30T02:05:22.485Z,63.90
2023-03-30T02:07:54.589Z,63.90
2023-03-30T02:10:28.703Z,63.90
2023-03-30T02:12:59.855Z,64.00
2023-03-30T02:15:34.551Z,64.00
2023-03-30T02:18:03.117Z,64.00
2023-03-30T02:20:31.942Z,64.70
2023-03-30T02:23:00.475Z,64.00
2023-03-30T02:25:30.082Z,64.00
2023-03-30T02:27:58.366Z,64.00
2023-03-30T02:30:26.649Z,64.10
2023-03-30T02:32:57.507Z,63.80
2023-03-30T02:35:35.976Z,63.70
2023-03-30T02:38:32.401Z,63.90
2023-03-30T02:41:10.896Z,64.20
2023-03-30T02:43:53.635Z,64.40
2023-03-30T02:46:37.465Z,64.50
2023-03-30T02:49:16.758Z,64.90
2023-03-30T02:51:48.160Z,65.60
2023-03-30T02:54:26.875Z,65.50
2023-03-30T02:57:06.455Z,65.90
2023-03-30T02:59:42.351Z,66.40
2023-03-30T03:02:18.143Z,66.70
2023-03-30T03:04:49.496Z,67.20
2023-03-30T03:07:19.744Z,67.40
2023-03-30T03:09:48.082Z,67.70
2023-03-30T03:12:17.724Z,68.00
2023-03-30T03:14:46.231Z,68.00
2023-03-30T03:17:16.873Z,68.10
2023-03-30T03:19:45.197Z,68.60
2023-03-30T03:22:13.355Z,68.80
2023-03-30T03:24:41.619Z,69.20
2023-03-30T03:27:10.234Z,69.50
2023-03-30T03:29:39.922Z,69.70
2023-03-30T03:32:08.319Z,69.90
2023-03-30T03:34:36.598Z,70.20
2023-03-30T03:37:04.788Z,70.70
2023-03-30T03:39:33.137Z,71.20
2023-03-30T03:42:01.297Z,71.60
2023-03-30T03:44:29.450Z,72.00
2023-03-30T03:46:59.100Z,72.90
2023-03-30T03:49:27.345Z,73.40
2023-03-30T03:51:55.533Z,73.30
2023-03-30T03:54:23.834Z,73.50
2023-03-30T03:56:52.452Z,73.60
2023-03-30T03:59:20.723Z,73.60
2023-03-30T04:01:48.966Z,73.50
2023-03-30T04:04:18.585Z,73.20
2023-03-30T04:06:47.191Z,73.30
2023-03-30T04:09:15.345Z,73.10
2023-03-30T04:11:43.545Z,72.90
2023-03-30T04:14:11.808Z,73.20
2023-03-30T04:16:40.173Z,73.20
2023-03-30T04:19:09.109Z,73.40
2023-03-30T04:21:41.152Z,73.40
2023-03-30T04:24:12.209Z,73.40
2023-03-30T04:26:41.647Z,73.30
2023-03-30T04:29:10.455Z,73.10
2023-03-30T04:31:38.700Z,73.00
2023-03-30T04:34:09.466Z,72.90
2023-03-30T04:36:39.050Z,72.70
2023-03-30T04:39:08.044Z,72.50
2023-03-30T04:41:36.260Z,72.30
2023-03-30T04:44:06.355Z,72.10
2023-03-30T04:46:34.726Z,71.90
2023-03-30T04:49:03.343Z,71.80
2023-03-30T04:51:31.571Z,71.60
2023-03-30T04:54:02.399Z,71.60
2023-03-30T04:56:30.628Z,71.40
2023-03-30T04:58:58.786Z,71.30
2023-03-30T05:01:27.031Z,71.30
2023-03-30T05:03:55.361Z,71.40
2023-03-30T05:06:24.027Z,71.30
2023-03-30T05:08:52.435Z,71.30
2023-03-30T05:11:22.020Z,71.40
2023-03-30T05:13:52.357Z,71.40
2023-03-30T05:16:21.549Z,71.60
2023-03-30T05:18:51.591Z,71.40
2023-03-30T05:21:20.062Z,71.40
2023-03-30T05:23:48.239Z,71.40
2023-03-30T05:26:16.768Z,71.50
2023-03-30T05:28:47.878Z,71.40
2023-03-30T05:31:16.257Z,71.60
2023-03-30T05:33:44.514Z,71.50
2023-03-30T05:36:13.295Z,71.50
2023-03-30T05:38:41.779Z,71.70
2023-03-30T05:41:10.035Z,71.80
2023-03-30T05:43:38.394Z,71.80
2023-03-30T05:46:08.497Z,71.80
2023-03-30T05:48:36.803Z,72.00
2023-03-30T05:51:05.630Z,72.00
2023-03-30T05:53:33.960Z,72.00
2023-03-30T05:56:02.244Z,72.10
2023-03-30T05:58:30.825Z,72.30
2023-03-30T06:00:59.324Z,72.60
2023-03-30T06:03:29.071Z,72.70
2023-03-30T06:05:57.376Z,72.70
2023-03-30T06:08:27.026Z,72.60
2023-03-30T06:10:56.309Z,72.80
2023-03-30T06:13:25.276Z,72.90
2023-03-30T06:15:53.714Z,73.10
2023-03-30T06:18:22.667Z,73.20
2023-03-30T06:20:53.391Z,73.50
2023-03-30T06:23:23.079Z,73.60
2023-03-30T06:25:53.550Z,73.60
2023-03-30T06:28:22.798Z,73.60
2023-03-30T06:30:51.530Z,73.70
2023-03-30T06:33:20.413Z,73.80
2023-03-30T06:35:49.327Z,73.90
2023-03-30T06:38:19.596Z,74.00
2023-03-30T06:40:47.799Z,74.20
2023-03-30T06:43:18.935Z,74.20
2023-03-30T06:45:52.118Z,74.30
2023-03-30T06:48:22.513Z,74.50
2023-03-30T06:50:50.774Z,74.40
2023-03-30T06:53:21.220Z,74.50
2023-03-30T06:55:53.296Z,74.60
2023-03-30T06:58:21.502Z,74.80
2023-03-30T07:00:49.765Z,74.70
2023-03-30T07:03:19.353Z,74.60
2023-03-30T07:05:49.490Z,74.70
2023-03-30T07:08:19.394Z,74.80
2023-03-30T07:10:48.503Z,74.80
2023-03-30T07:13:17.598Z,74.90
2023-03-30T07:15:46.888Z,74.90
2023-03-30T07:18:15.520Z,74.90
2023-03-30T07:20:44.914Z,74.80
2023-03-30T07:23:13.105Z,74.80
2023-03-30T07:25:42.791Z,74.80
2023-03-30T07:28:11.136Z,74.90
2023-03-30T07:30:39.952Z,74.80
2023-03-30T07:33:08.328Z,74.80
2023-03-30T07:35:36.707Z,74.80
2023-03-30T07:38:05.144Z,74.80
2023-03-30T07:40:33.464Z,74.80
2023-03-30T07:43:03.138Z,74.80
2023-03-30T07:45:31.398Z,74.70
2023-03-30T07:47:59.937Z,74.30
2023-03-30T07:50:28.244Z,74.10
2023-03-30T07:52:56.477Z,74.10
2023-03-30T07:55:24.944Z,74.30
2023-03-30T07:57:53.245Z,74.40
2023-03-30T08:00:24.184Z,74.50
2023-03-30T08:02:53.171Z,74.70
2023-03-30T08:05:21.454Z,74.70
2023-03-30T08:07:49.727Z,74.80
2023-03-30T08:10:18.227Z,74.60
2023-03-30T08:12:46.389Z,74.70
2023-03-30T08:15:14.589Z,74.80
2023-03-30T08:17:44.149Z,74.90
2023-03-30T08:20:12.911Z,75.00
2023-03-30T08:22:41.595Z,75.10
2023-03-30T08:25:10.899Z,75.20
2023-03-30T08:27:39.248Z,75.40
2023-03-30T08:30:08.842Z,75.50
2023-03-30T08:32:37.114Z,75.70
2023-03-30T08:35:08.380Z,75.70
2023-03-30T08:37:36.592Z,75.90
2023-03-30T08:40:06.621Z,75.90
2023-03-30T08:42:58.934Z,76.20
2023-03-30T08:45:35.265Z,76.70
2023-03-30T08:48:04.603Z,76.40
2023-03-30T08:50:35.875Z,76.50
2023-03-30T08:53:05.904Z,76.60
2023-03-30T08:55:40.044Z,76.50
2023-03-30T08:58:17.073Z,76.50
2023-03-30T09:00:48.524Z,76.80
2023-03-30T09:03:24.019Z,76.80
2023-03-30T09:06:00.460Z,76.90
2023-03-30T09:08:32.026Z,77.20
2023-03-30T09:11:02.934Z,77.00
2023-03-30T09:13:35.406Z,76.90
2023-03-30T09:16:12.338Z,76.80
2023-03-30T09:18:42.283Z,76.60
2023-03-30T09:21:13.122Z,76.10
2023-03-30T09:23:41.449Z,76.00
2023-03-30T09:26:22.142Z,75.80
2023-03-30T09:28:56.945Z,75.70
2023-03-30T09:31:32.189Z,75.60
2023-03-30T09:34:08.969Z,75.40
2023-03-30T09:36:45.615Z,75.20
2023-03-30T09:39:18.926Z,75.00
2023-03-30T09:42:01.109Z,74.70
2023-03-30T09:44:36.104Z,74.50
2023-03-30T09:47:17.832Z,74.30
2023-03-30T09:49:45.993Z,73.90
2023-03-30T09:52:22.429Z,73.50
2023-03-30T09:54:50.660Z,73.50
2023-03-30T09:57:27.977Z,73.20
2023-03-30T09:59:57.001Z,73.00
2023-03-30T10:02:27.886Z,72.70
2023-03-30T10:05:00.340Z,72.60
2023-03-30T10:07:34.170Z,72.30
2023-03-30T10:10:13.381Z,72.10
2023-03-30T10:12:41.667Z,71.90
2023-03-30T10:15:17.923Z,71.60
2023-03-30T10:17:48.591Z,71.40
2023-03-30T10:20:27.898Z,71.00
2023-03-30T10:23:01.711Z,70.90
2023-03-30T10:25:31.637Z,70.70
2023-03-30T10:28:04.701Z,70.50
2023-03-30T10:30:34.770Z,70.20
2023-03-30T10:33:04.253Z,69.40
2023-03-30T10:35:38.066Z,69.40
2023-03-30T10:38:10.488Z,69.10
2023-03-30T10:40:41.784Z,68.10
2023-03-30T10:43:16.341Z,67.80
2023-03-30T10:45:48.395Z,67.60
2023-03-30T10:48:34.212Z,67.50
2023-03-30T10:58:46.719Z,66.80
2023-03-30T11:01:22.165Z,66.30
2023-03-30T11:03:55.546Z,65.90
2023-03-30T11:06:29.433Z,65.50
2023-03-30T11:08:59.598Z,64.30
2023-03-30T11:11:34.347Z,64.10
2023-03-30T11:14:08.624Z,63.10
2023-03-30T11:16:47.718Z,62.30
2023-03-30T11:19:19.541Z,61.80
2023-03-30T11:21:56.800Z,61.60
2023-03-30T11:24:27.624Z,61.80
2023-03-30T11:27:02.043Z,61.50
2023-03-30T11:29:39.614Z,60.80
2023-03-30T11:32:25.962Z,60.50
2023-03-30T11:35:05.573Z,60.00
2023-03-30T11:37:39.599Z,59.50
2023-03-30T11:40:17.820Z,58.20
2023-03-30T11:42:47.475Z,57.40
2023-03-30T11:45:35.289Z,57.70
2023-03-30T11:48:28.789Z,57.30
2023-03-30T11:51:10.679Z,57.20
2023-03-30T11:53:47.764Z,57.30
2023-03-30T11:56:26.683Z,58.30
2023-03-30T11:59:04.618Z,58.50
2023-03-30T12:01:46.773Z,58.80
2023-03-30T12:04:17.349Z,59.60
2023-03-30T12:06:52.933Z,59.80
2023-03-30T12:09:26.342Z,60.90
2023-03-30T12:11:58.545Z,61.70
2023-03-30T12:14:59.130Z,62.70
2023-03-30T12:17:43.153Z,63.60
2023-03-30T12:20:22.868Z,64.70
2023-03-30T12:22:56.559Z,65.20
2023-03-30T12:25:31.534Z,65.90
2023-03-30T12:28:12.713Z,66.10
2023-03-30T12:30:48.615Z,66.80
2023-03-30T12:33:21.433Z,66.60
2023-03-30T12:35:58.687Z,66.70
2023-03-30T12:38:29.883Z,67.30
2023-03-30T12:41:14.564Z,67.70
2023-03-30T12:44:19.540Z,67.90
2023-03-30T12:46:59.421Z,67.90
2023-03-30T12:49:39.107Z,68.30
2023-03-30T12:52:14.121Z,68.60
2023-03-30T12:55:14.680Z,68.40
2023-03-30T12:58:18.465Z,69.00
2023-03-30T13:01:10.105Z,68.90
2023-03-30T13:03:49.760Z,69.00
2023-03-30T13:06:27.708Z,69.20
2023-03-30T13:08:57.825Z,69.60
2023-03-30T13:11:25.948Z,70.00
2023-03-30T13:13:57.087Z,70.10
2023-03-30T13:17:23.946Z,70.60
2023-03-30T13:20:28.229Z,71.30
2023-03-30T13:23:24.754Z,71.20
2023-03-30T13:26:02.151Z,70.30
2023-03-30T13:28:37.789Z,70.20
2023-03-30T13:31:19.491Z,69.90
2023-03-30T13:33:52.913Z,69.50
2023-03-30T13:36:26.150Z,69.50
2023-03-30T13:39:07.079Z,69.40
2023-03-30T13:41:44.147Z,69.50
2023-03-30T13:44:39.320Z,69.20
2023-03-30T13:47:20.719Z,68.90
2023-03-30T13:49:59.286Z,69.00
2023-03-30T13:52:33.203Z,69.10
2023-03-30T13:55:04.088Z,69.40
2023-03-30T13:57:36.590Z,69.60
2023-03-30T14:00:09.233Z,69.90
2023-03-30T14:02:41.735Z,69.70
2023-03-30T14:05:15.362Z,69.70
2023-03-30T14:07:47.413Z,69.30
2023-03-30T14:10:19.901Z,68.90
2023-03-30T14:12:53.117Z,68.80
2023-03-30T14:15:23.524Z,68.60
2023-03-30T14:17:54.674Z,68.70
2023-03-30T14:20:36.173Z,68.50
2023-03-30T14:23:05.639Z,68.50
2023-03-30T14:25:39.771Z,68.70
2023-03-30T14:28:14.388Z,68.50
2023-03-30T14:30:50.995Z,68.40
2023-03-30T14:33:19.734Z,68.40
2023-03-30T14:35:50.432Z,67.90
2023-03-30T14:38:23.985Z,67.50
2023-03-30T14:40:55.460Z,66.90
2023-03-30T14:43:26.015Z,66.40
2023-03-30T14:45:55.322Z,66.40
2023-03-30T14:48:28.168Z,66.30
2023-03-30T14:50:56.759Z,66.20
2023-03-30T14:53:28.153Z,65.50
2023-03-30T14:55:59.232Z,65.60
2023-03-30T14:58:31.243Z,65.50
2023-03-30T15:01:01.344Z,65.50
2023-03-30T15:03:34.317Z,65.30
2023-03-30T15:06:04.304Z,65.30
2023-03-30T15:08:35.124Z,65.40
2023-03-30T15:11:09.841Z,65.00
2023-03-30T15:13:41.712Z,64.70
2023-03-30T15:16:10.972Z,64.70
2023-03-30T15:18:39.077Z,65.10
2023-03-30T15:21:10.525Z,65.00
2023-03-30T15:23:42.923Z,64.50
2023-03-30T15:26:13.796Z,64.50
2023-03-30T15:28:46.862Z,64.40
2023-03-30T15:31:16.508Z,64.40
2023-03-30T15:33:46.683Z,64.50
2023-03-30T15:36:18.648Z,64.40
2023-03-30T15:38:50.789Z,64.30
2023-03-30T15:41:24.592Z,64.20
2023-03-30T15:43:57.858Z,64.20
2023-03-30T15:46:28.071Z,63.60
2023-03-30T15:48:59.409Z,63.30
2023-03-30T15:51:33.071Z,62.70
2023-03-30T15:54:04.091Z,61.80
2023-03-30T15:56:39.840Z,62.90
2023-03-30T15:59:14.591Z,63.70
2023-03-30T16:01:45.393Z,65.00
2023-03-30T16:04:17.282Z,65.20
2023-03-30T16:06:47.505Z,64.60
2023-03-30T16:09:16.213Z,64.60
2023-03-30T16:11:46.817Z,64.80
2023-03-30T16:14:17.973Z,65.40
2023-03-30T16:16:46.252Z,65.50
2023-03-30T16:19:16.076Z,65.90
2023-03-30T16:21:45.458Z,65.90
2023-03-30T16:24:14.198Z,65.90
2023-03-30T16:26:42.333Z,66.30
2023-03-30T16:29:20.349Z,66.40
2023-03-30T16:31:48.556Z,66.80
2023-03-30T16:34:16.676Z,66.80
2023-03-30T16:36:45.583Z,67.00
2023-03-30T16:39:18.781Z,67.00
2023-03-30T16:41:47.321Z,67.10
2023-03-30T16:44:17.271Z,67.30
2023-03-30T16:46:46.787Z,67.50
2023-03-30T16:49:16.648Z,67.70
2023-03-30T16:51:45.701Z,68.00
2023-03-30T16:54:23.569Z,68.20
2023-03-30T16:56:59.193Z,68.30
2023-03-30T16:59:30.586Z,68.60
2023-03-30T17:01:59.336Z,68.80
2023-03-30T17:04:27.566Z,67.40
2023-03-30T17:06:55.727Z,66.90
2023-03-30T17:09:24.336Z,67.10
2023-03-30T17:11:52.566Z,67.40
2023-03-30T17:14:23.211Z,67.50
2023-03-30T17:16:52.803Z,67.40
2023-03-30T17:19:20.980Z,67.10
2023-03-30T17:21:49.018Z,66.90
2023-03-30T17:24:17.082Z,66.50
2023-03-30T17:26:45.440Z,66.00
2023-03-30T17:29:13.566Z,65.70
2023-03-30T17:31:45.577Z,65.40
2023-03-30T17:34:15.713Z,65.20
2023-03-30T17:36:43.922Z,64.80
2023-03-30T17:39:15.226Z,64.80
2023-03-30T17:41:43.331Z,64.90
2023-03-30T17:44:11.430Z,64.70
2023-03-30T17:46:39.579Z,64.70
2023-03-30T17:49:18.153Z,64.60
2023-03-30T17:51:47.128Z,64.50
2023-03-30T17:54:15.500Z,64.50
2023-03-30T17:56:43.615Z,64.40
2023-03-30T17:59:12.012Z,64.50
2023-03-30T18:01:40.380Z,64.50
2023-03-30T18:04:09.196Z,64.50
2023-03-30T18:06:38.839Z,64.50
2023-03-30T18:09:15.674Z,64.70
2023-03-30T18:11:44.052Z,65.00
2023-03-30T18:14:12.194Z,65.10
2023-03-30T18:16:43.680Z,65.40
2023-03-30T18:19:12.528Z,65.40
2023-03-30T18:21:42.034Z,65.50
2023-03-30T18:24:10.117Z,65.50
2023-03-30T18:26:39.879Z,65.60
2023-03-30T18:29:16.392Z,65.50
2023-03-30T18:31:44.511Z,65.50
2023-03-30T18:34:12.656Z,65.40
2023-03-30T18:36:42.750Z,65.40
2023-03-30T18:39:16.212Z,65.40
2023-03-30T18:41:44.260Z,65.30
2023-03-30T18:44:13.015Z,65.30
2023-03-30T18:46:41.218Z,65.20
2023-03-30T18:49:13.518Z,65.20
2023-03-30T18:51:43.037Z,65.10
2023-03-30T18:54:11.112Z,64.90
2023-03-30T18:56:39.160Z,64.90
2023-03-30T18:59:07.589Z,64.80
2023-03-30T19:01:36.785Z,64.60
2023-03-30T19:04:04.880Z,64.80
2023-03-30T19:06:33.756Z,64.70
2023-03-30T19:09:03.269Z,64.20
2023-03-30T19:11:31.398Z,64.00
2023-03-30T19:14:00.383Z,64.10
2023-03-30T19:16:28.453Z,63.90
2023-03-30T19:18:56.527Z,63.90
2023-03-30T19:21:24.710Z,63.90
2023-03-30T19:23:52.766Z,64.10
2023-03-30T19:26:23.220Z,64.20
2023-03-30T19:28:51.447Z,64.40
2023-03-30T19:31:19.621Z,64.50
2023-03-30T19:33:47.710Z,64.70
2023-03-30T19:36:15.967Z,64.80
2023-03-30T19:38:44.325Z,64.90
2023-03-30T19:41:12.554Z,65.10
2023-03-30T19:43:42.011Z,65.20
2023-03-30T19:46:10.154Z,65.20
2023-03-30T19:48:38.279Z,65.20
2023-03-30T19:51:06.795Z,65.10
2023-03-30T19:53:35.412Z,65.20
2023-03-30T19:56:03.540Z,65.20
2023-03-30T19:58:31.771Z,65.10
2023-03-30T20:01:04.841Z,65.10
2023-03-30T20:03:35.171Z,65.80
2023-03-30T20:06:03.573Z,64.90
2023-03-30T20:08:32.842Z,64.90
2023-03-30T20:11:00.883Z,64.90
2023-03-30T20:13:28.970Z,64.70
2023-03-30T20:15:57.137Z,64.50
2023-03-30T20:18:26.619Z,64.50
2023-03-30T20:20:54.669Z,64.50
2023-03-30T20:23:22.731Z,64.50
2023-03-30T20:25:56.671Z,64.50
2023-03-30T20:28:24.753Z,64.50
2023-03-30T20:30:57.075Z,64.60
2023-03-30T20:33:27.573Z,64.70
2023-03-30T20:35:58.363Z,64.80
2023-03-30T20:38:26.550Z,65.00
2023-03-30T20:40:58.523Z,64.90
2023-03-30T20:43:27.027Z,64.90
2023-03-30T20:46:02.280Z,65.10
2023-03-30T20:48:33.493Z,64.90
2023-03-30T20:51:03.666Z,65.10
2023-03-30T20:53:32.222Z,65.00
2023-03-30T20:56:00.531Z,64.90
2023-03-30T20:58:29.482Z,64.90
2023-03-30T21:00:58.972Z,64.90
2023-03-30T21:03:29.251Z,65.00
2023-03-30T21:06:03.290Z,64.90
2023-03-30T21:08:32.536Z,64.90
2023-03-30T21:11:01.309Z,64.90
2023-03-30T21:13:30.195Z,64.90
2023-03-30T21:15:58.928Z,65.10
2023-03-30T21:18:27.442Z,65.20
2023-03-30T21:20:55.912Z,65.20
2023-03-30T21:23:26.791Z,65.20
2023-03-30T21:25:57.314Z,65.20
2023-03-30T21:28:27.157Z,65.30
2023-03-30T21:30:56.615Z,65.30
2023-03-30T21:33:24.976Z,65.50
2023-03-30T21:35:53.884Z,65.50
2023-03-30T21:38:23.004Z,65.50
2023-03-30T21:41:02.098Z,65.60
2023-03-30T21:43:32.098Z,65.60
2023-03-30T21:46:02.687Z,65.60
2023-03-30T21:48:32.705Z,65.60
2023-03-30T21:51:02.073Z,65.70
2023-03-30T21:53:31.203Z,66.60
2023-03-30T21:56:01.443Z,65.90
2023-03-30T21:58:30.657Z,65.90
2023-03-30T22:01:11.223Z,66.00
2023-03-30T22:03:41.518Z,66.10
2023-03-30T22:06:11.076Z,66.30
2023-03-30T22:08:39.444Z,66.00
2023-03-30T22:11:14.280Z,65.90
2023-03-30T22:13:42.702Z,65.90
2023-03-30T22:16:13.655Z,65.90
2023-03-30T22:18:42.141Z,65.90
2023-03-30T22:21:14.046Z,65.90
2023-03-30T22:23:41.985Z,65.80
2023-03-30T22:26:11.965Z,65.90
2023-03-30T22:28:40.412Z,65.70
2023-03-30T22:31:08.880Z,65.80
2023-03-30T22:33:37.025Z,65.80
2023-03-30T22:36:07.239Z,65.90
2023-03-30T22:38:35.704Z,66.10
2023-03-30T22:41:07.344Z,66.20
2023-03-30T22:43:37.411Z,66.40
2023-03-30T22:46:06.048Z,66.50
2023-03-30T22:48:35.573Z,66.20
2023-03-30T22:51:04.513Z,66.50
2023-03-30T22:53:33.394Z,66.50
2023-03-30T22:56:01.887Z,66.60
2023-03-30T22:58:29.947Z,66.80
2023-03-30T23:01:02.569Z,66.60
2023-03-30T23:03:31.042Z,66.70
2023-03-30T23:06:01.108Z,66.70
2023-03-30T23:08:29.946Z,66.80
2023-03-30T23:11:04.501Z,66.70
2023-03-30T23:13:33.107Z,66.70
2023-03-30T23:16:02.575Z,66.60
2023-03-30T23:18:30.697Z,66.60
2023-03-30T23:20:59.017Z,66.60
2023-03-30T23:23:27.064Z,66.70
2023-03-30T23:25:55.156Z,66.80
2023-03-30T23:28:23.257Z,66.90
2023-03-30T23:30:51.360Z,67.10
2023-03-30T23:33:21.582Z,67.10
2023-03-30T23:35:50.789Z,67.20
2023-03-30T23:38:19.317Z,67.10
2023-03-30T23:40:47.516Z,67.20
2023-03-30T23:43:15.668Z,67.40
2023-03-30T23:45:44.223Z,67.60
2023-03-30T23:48:12.310Z,67.50
2023-03-30T23:50:41.725Z,67.40
2023-03-30T23:53:09.787Z,67.50
2023-03-30T23:55:38.314Z,67.30
2023-03-30T23:58:06.376Z,67.20
